Time;durP1;ratioP1;P1;durP2;ratioP2;P2;SDS_P1;SDS_P2;PMS_P1;PMS_P2;Temp;Humidity;BMP_temperature;BMP_pressure;BME280_temperature;BME280_humidity;BME280_pressure;Samples;Min_cycle;Max_cycle;Signal;HPM_P1;HPM_P2
2023/07/25 00:00:27;;;;;;;3.28;1.30;;;19.70;62.60;;;;;;5072488;28;20457;-81
2023/07/25 00:02:53;;;;;;;2.05;1.13;;;19.70;62.60;;;;;;5056018;28;20038;-81
2023/07/25 00:05:18;;;;;;;1.92;1.30;;;19.70;62.70;;;;;;5055571;28;20466;-83
2023/07/25 00:07:44;;;;;;;1.48;1.20;;;19.60;62.60;;;;;;5038830;28;20550;-81
2023/07/25 00:10:13;;;;;;;1.80;1.08;;;19.60;62.70;;;;;;5071927;28;20063;-82
2023/07/25 00:12:38;;;;;;;1.08;1.08;;;19.60;62.70;;;;;;5022562;28;20427;-86
2023/07/25 00:15:05;;;;;;;1.98;1.00;;;19.60;62.70;;;;;;5071789;28;20459;-81
2023/07/25 00:17:31;;;;;;;1.38;1.23;;;19.50;62.70;;;;;;5055882;28;20032;-79
2023/07/25 00:19:57;;;;;;;1.33;1.10;;;19.50;62.80;;;;;;5055087;28;20024;-79
2023/07/25 00:22:23;;;;;;;1.85;1.20;;;19.50;62.80;;;;;;5055855;28;20052;-79
2023/07/25 00:24:49;;;;;;;1.92;1.33;;;19.50;62.80;;;;;;5071974;28;20449;-88
2023/07/25 00:27:15;;;;;;;1.45;1.20;;;19.50;62.90;;;;;;5055143;28;20131;-81
2023/07/25 00:29:41;;;;;;;1.33;1.20;;;19.40;62.80;;;;;;5038661;28;20123;-82
2023/07/25 00:32:07;;;;;;;1.55;1.30;;;19.40;62.90;;;;;;5055260;28;20027;-80
2023/07/25 00:34:33;;;;;;;1.50;1.20;;;19.40;63.50;;;;;;5023193;28;20025;-80
2023/07/25 00:36:58;;;;;;;1.13;1.02;;;19.40;62.90;;;;;;5055411;28;20055;-80
2023/07/25 00:39:24;;;;;;;1.67;1.17;;;19.30;62.90;;;;;;5073383;28;20024;-80
2023/07/25 00:41:50;;;;;;;1.33;1.23;;;19.30;62.90;;;;;;5071965;28;20035;-80
2023/07/25 00:44:16;;;;;;;1.38;1.00;;;19.30;63.00;;;;;;5056133;28;20453;-80
2023/07/25 00:46:42;;;;;;;1.60;1.27;;;19.30;63.00;;;;;;5038443;28;20029;-80
2023/07/25 00:49:09;;;;;;;1.10;1.00;;;19.20;63.00;;;;;;5055327;28;20060;-80
2023/07/25 00:51:35;;;;;;;1.30;1.08;;;19.20;63.00;;;;;;5055523;28;20033;-80
2023/07/25 00:54:01;;;;;;;1.30;1.17;;;19.20;63.00;;;;;;5055054;28;20039;-79
2023/07/25 00:56:27;;;;;;;1.42;1.05;;;19.20;63.10;;;;;;5055092;28;20040;-80
2023/07/25 00:58:56;;;;;;;1.30;1.20;;;19.10;63.70;;;;;;5038738;28;20029;-80
2023/07/25 01:01:23;;;;;;;1.52;1.13;;;19.10;63.10;;;;;;5055075;28;20119;-80
2023/07/25 01:03:49;;;;;;;1.58;1.33;;;19.10;63.10;;;;;;5038264;28;20082;-79
2023/07/25 01:06:17;;;;;;;1.15;1.00;;;19.10;63.10;;;;;;5038411;28;20060;-78
2023/07/25 01:08:53;;;;;;;1.38;1.20;;;19.00;63.10;;;;;;5054894;28;20025;-83
2023/07/25 01:11:21;;;;;;;1.73;1.20;;;19.10;63.20;;;;;;5035930;28;20106;-80
2023/07/25 01:13:47;;;;;;;1.73;1.30;;;19.00;63.10;;;;;;5038503;28;20037;-80
2023/07/25 01:16:17;;;;;;;1.42;1.10;;;19.00;63.20;;;;;;5054981;28;20025;-83
2023/07/25 01:18:44;;;;;;;1.50;1.23;;;18.90;63.10;;;;;;5054923;28;20040;-85
2023/07/25 01:21:11;;;;;;;1.70;1.20;;;18.90;63.10;;;;;;5071417;28;20032;-79
2023/07/25 01:23:38;;;;;;;1.63;1.10;;;18.90;63.20;;;;;;5054855;28;20029;-83
2023/07/25 01:26:03;;;;;;;1.90;1.48;;;18.90;63.20;;;;;;5055295;28;20025;-80
2023/07/25 01:28:29;;;;;;;1.15;1.05;;;18.80;63.10;;;;;;5054922;28;20048;-83
2023/07/25 01:30:59;;;;;;;1.35;1.25;;;18.80;63.20;;;;;;5038227;28;20044;-81
2023/07/25 01:33:25;;;;;;;2.20;1.35;;;18.80;63.20;;;;;;5038804;28;20175;-80
2023/07/25 01:35:50;;;;;;;1.65;1.05;;;18.80;63.20;;;;;;5055261;28;20484;-80
2023/07/25 01:38:16;;;;;;;1.23;1.13;;;18.80;63.20;;;;;;5038306;28;20037;-81
2023/07/25 01:40:42;;;;;;;1.75;1.27;;;18.80;63.20;;;;;;5022353;28;20029;-80
2023/07/25 01:43:11;;;;;;;2.30;1.52;;;18.70;63.20;;;;;;5038679;28;20052;-80
2023/07/25 01:45:36;;;;;;;1.40;1.10;;;18.70;63.30;;;;;;5054561;28;20025;-80
2023/07/25 01:48:02;;;;;;;1.77;1.00;;;18.70;63.30;;;;;;5038079;28;20457;-79
2023/07/25 01:50:29;;;;;;;1.50;1.20;;;18.60;63.20;;;;;;5054073;28;20481;-79
2023/07/25 01:52:55;;;;;;;1.65;1.27;;;18.60;63.30;;;;;;5037841;28;20036;-79
2023/07/25 01:55:21;;;;;;;2.53;1.15;;;18.60;63.30;;;;;;5055057;28;20100;-79
2023/07/25 01:57:47;;;;;;;2.97;1.55;;;18.60;63.30;;;;;;5054442;28;20029;-83
2023/07/25 02:00:13;;;;;;;1.30;1.20;;;18.60;63.30;;;;;;5054470;28;20094;-80
2023/07/25 02:02:39;;;;;;;1.55;1.35;;;18.50;63.30;;;;;;5054774;28;20067;-81
2023/07/25 02:05:05;;;;;;;1.30;1.20;;;18.50;63.30;;;;;;5037775;28;20040;-82
2023/07/25 02:07:31;;;;;;;1.50;1.20;;;18.50;63.40;;;;;;5054350;28;20469;-79
2023/07/25 02:09:57;;;;;;;2.92;1.92;;;18.50;63.40;;;;;;5060175;28;20127;-82
2023/07/25 02:12:23;;;;;;;1.63;1.50;;;18.40;63.40;;;;;;5040934;28;20127;-81
2023/07/25 02:14:48;;;;;;;1.85;1.48;;;18.40;63.40;;;;;;5057437;28;20086;-80
2023/07/25 02:17:14;;;;;;;2.75;1.77;;;18.40;63.50;;;;;;5041522;28;20060;-79
2023/07/25 02:19:40;;;;;;;1.30;1.17;;;18.30;63.40;;;;;;5041454;28;20488;-79
2023/07/25 02:22:07;;;;;;;1.63;1.30;;;18.30;63.40;;;;;;5056894;28;20487;-80
2023/07/25 02:24:34;;;;;;;2.20;1.38;;;18.30;63.40;;;;;;5056801;28;20060;-78
2023/07/25 02:27:00;;;;;;;2.40;1.70;;;18.30;63.50;;;;;;5008397;28;20052;-79
2023/07/25 02:29:26;;;;;;;1.58;1.40;;;18.30;63.50;;;;;;5057003;28;20041;-81
2023/07/25 02:31:51;;;;;;;1.70;1.35;;;18.30;63.50;;;;;;5040708;28;20039;-79
2023/07/25 02:34:17;;;;;;;1.60;1.30;;;18.30;63.60;;;;;;5058310;28;20029;-79
2023/07/25 02:36:43;;;;;;;1.85;1.52;;;18.20;63.60;;;;;;5057621;28;20028;-79
2023/07/25 02:39:09;;;;;;;2.42;1.35;;;18.20;63.60;;;;;;5057321;28;20041;-80
2023/07/25 02:41:37;;;;;;;2.40;1.50;;;18.20;63.60;;;;;;5040465;28;20086;-79
2023/07/25 02:44:03;;;;;;;2.10;1.48;;;18.10;63.60;;;;;;5057058;28;20032;-82
2023/07/25 02:46:29;;;;;;;1.60;1.33;;;18.10;63.60;;;;;;5039841;28;20423;-80
2023/07/25 02:48:55;;;;;;;1.33;1.23;;;18.10;63.60;;;;;;5056810;28;20115;-81
2023/07/25 02:51:21;;;;;;;3.13;1.60;;;18.10;63.70;;;;;;5040790;28;20119;-80
2023/07/25 02:53:47;;;;;;;1.90;1.50;;;18.10;63.70;;;;;;5056324;28;20143;-80
2023/07/25 02:56:12;;;;;;;1.45;1.30;;;18.00;63.70;;;;;;5056424;28;20032;-80
2023/07/25 02:58:38;;;;;;;2.58;1.55;;;18.00;63.70;;;;;;5056427;28;20422;-79
2023/07/25 03:01:04;;;;;;;2.25;1.48;;;18.00;63.70;;;;;;5056530;28;20485;-81
2023/07/25 03:03:30;;;;;;;1.55;1.38;;;18.00;63.70;;;;;;5074273;28;20043;-79
2023/07/25 03:05:56;;;;;;;2.72;1.60;;;18.00;63.70;;;;;;5055919;28;20028;-81
2023/07/25 03:08:21;;;;;;;1.45;1.30;;;18.00;63.80;;;;;;5056377;28;20102;-79
2023/07/25 03:10:47;;;;;;;2.85;1.50;;;18.00;63.80;;;;;;5039461;28;20083;-80
2023/07/25 03:13:13;;;;;;;1.33;1.23;;;17.90;63.80;;;;;;5056820;28;20028;-81
2023/07/25 03:15:39;;;;;;;1.88;1.58;;;17.90;63.90;;;;;;5056053;28;20468;-81
2023/07/25 03:18:05;;;;;;;1.83;1.60;;;17.90;63.80;;;;;;5056623;28;20067;-80
2023/07/25 03:20:30;;;;;;;1.60;1.35;;;17.90;63.90;;;;;;5039182;28;20032;-80
2023/07/25 03:22:56;;;;;;;2.38;1.50;;;17.80;63.90;;;;;;5073967;28;20036;-80
2023/07/25 03:25:22;;;;;;;2.65;1.67;;;17.80;63.90;;;;;;5072794;28;20025;-80
2023/07/25 03:27:48;;;;;;;1.98;1.55;;;17.80;63.90;;;;;;5039298;28;20446;-79
2023/07/25 03:30:13;;;;;;;2.28;1.73;;;17.80;63.90;;;;;;5039999;28;20419;-79
2023/07/25 03:32:39;;;;;;;1.67;1.40;;;17.80;63.90;;;;;;5039273;28;20107;-80
2023/07/25 03:35:06;;;;;;;1.67;1.52;;;17.70;63.90;;;;;;5071916;28;20064;-81
2023/07/25 03:37:31;;;;;;;2.00;1.70;;;17.70;63.90;;;;;;5039866;28;20463;-80
2023/07/25 03:39:57;;;;;;;2.70;1.90;;;17.70;63.90;;;;;;5039016;28;20040;-79
2023/07/25 03:42:23;;;;;;;1.60;1.50;;;17.60;63.90;;;;;;5039435;28;20029;-79
2023/07/25 03:44:49;;;;;;;2.70;1.77;;;17.70;64.00;;;;;;5040050;28;20086;-79
2023/07/25 03:47:14;;;;;;;2.78;1.67;;;17.60;63.90;;;;;;5039754;28;20066;-79
2023/07/25 03:49:40;;;;;;;1.88;1.60;;;17.60;64.00;;;;;;5055559;28;20358;-79
2023/07/25 03:52:06;;;;;;;2.25;1.58;;;17.60;64.00;;;;;;5056331;28;20062;-82
2023/07/25 03:54:32;;;;;;;1.77;1.50;;;17.60;64.10;;;;;;5073445;28;20472;-80
2023/07/25 03:56:58;;;;;;;2.97;1.48;;;17.60;64.10;;;;;;5022486;28;20103;-79
2023/07/25 03:59:23;;;;;;;2.03;1.55;;;17.60;64.10;;;;;;5038960;28;20074;-78
2023/07/25 04:01:49;;;;;;;2.70;1.73;;;17.50;64.10;;;;;;5039071;28;20109;-81
2023/07/25 04:04:15;;;;;;;2.97;1.65;;;17.50;64.10;;;;;;5056344;28;20036;-79
2023/07/25 04:06:41;;;;;;;2.75;1.52;;;17.50;64.10;;;;;;5022926;28;20561;-79
2023/07/25 04:09:06;;;;;;;1.75;1.63;;;17.50;64.10;;;;;;5055577;28;20124;-79
2023/07/25 04:11:32;;;;;;;3.72;1.90;;;17.50;64.10;;;;;;5039153;28;20071;-79
2023/07/25 04:13:58;;;;;;;2.22;1.52;;;17.50;64.20;;;;;;5073488;28;20487;-79
2023/07/25 04:16:24;;;;;;;1.50;1.40;;;17.40;64.20;;;;;;5056119;28;20420;-79
2023/07/25 04:18:49;;;;;;;4.35;2.05;;;17.40;64.20;;;;;;5055313;28;20439;-79
2023/07/25 04:21:15;;;;;;;2.15;1.52;;;17.40;64.20;;;;;;5038769;28;20040;-80
2023/07/25 04:23:42;;;;;;;2.47;1.50;;;17.40;64.20;;;;;;5056036;28;20437;-80
2023/07/25 04:26:08;;;;;;;1.80;1.58;;;17.40;64.20;;;;;;5055201;28;20082;-80
2023/07/25 04:28:34;;;;;;;2.17;1.63;;;17.40;64.30;;;;;;5055100;28;20032;-80
2023/07/25 04:30:59;;;;;;;1.80;1.60;;;17.40;64.30;;;;;;5055053;28;20047;-79
2023/07/25 04:33:25;;;;;;;2.22;1.70;;;17.30;64.30;;;;;;5055259;28;20040;-79
2023/07/25 04:35:52;;;;;;;2.88;2.10;;;17.30;64.30;;;;;;5056308;28;20440;-79
2023/07/25 04:38:17;;;;;;;1.95;1.70;;;17.30;64.30;;;;;;5055750;28;20058;-79
2023/07/25 04:40:43;;;;;;;2.45;1.90;;;17.30;64.30;;;;;;5038658;28;20041;-82
2023/07/25 04:43:09;;;;;;;2.78;1.90;;;17.30;64.30;;;;;;5055163;28;20060;-80
2023/07/25 04:45:36;;;;;;;1.60;1.50;;;17.30;65.00;;;;;;5040521;28;20215;-79
2023/07/25 04:48:01;;;;;;;3.08;2.05;;;17.30;64.40;;;;;;5042392;28;20047;-79
2023/07/25 04:50:27;;;;;;;2.20;1.83;;;17.30;65.10;;;;;;5042494;28;20114;-79
2023/07/25 04:52:53;;;;;;;3.13;1.80;;;17.20;64.40;;;;;;5042045;28;20035;-78
2023/07/25 04:55:19;;;;;;;2.15;1.70;;;17.20;64.40;;;;;;5058673;28;20031;-79
2023/07/25 04:57:44;;;;;;;3.08;2.00;;;17.20;64.40;;;;;;5058717;28;20064;-80
2023/07/25 05:00:11;;;;;;;2.40;1.77;;;17.20;64.40;;;;;;5041742;28;20028;-78
2023/07/25 05:02:36;;;;;;;2.28;1.80;;;17.20;64.50;;;;;;5026013;28;20037;-79
2023/07/25 05:05:02;;;;;;;2.88;1.83;;;17.20;64.50;;;;;;5076835;28;20119;-78
2023/07/25 05:07:28;;;;;;;2.95;1.90;;;17.20;64.50;;;;;;5042378;28;20155;-77
2023/07/25 05:09:53;;;;;;;2.20;1.83;;;17.20;64.50;;;;;;5076107;28;20055;-79
2023/07/25 05:12:19;;;;;;;2.55;1.85;;;17.20;64.50;;;;;;5059333;28;20037;-78
2023/07/25 05:14:45;;;;;;;1.80;1.70;;;17.10;64.50;;;;;;5059024;28;20044;-78
2023/07/25 05:17:11;;;;;;;2.45;1.80;;;17.10;64.50;;;;;;5058551;28;20408;-78
2023/07/25 05:19:36;;;;;;;3.03;1.75;;;17.10;64.50;;;;;;5076308;28;20031;-77
2023/07/25 05:22:02;;;;;;;2.33;1.83;;;17.20;64.50;;;;;;5041982;28;20040;-79
2023/07/25 05:24:29;;;;;;;2.35;1.90;;;17.10;64.50;;;;;;5058288;28;20106;-77
2023/07/25 05:26:54;;;;;;;2.47;1.67;;;17.20;64.60;;;;;;5076449;28;20047;-80
2023/07/25 05:29:20;;;;;;;2.33;1.90;;;17.10;64.50;;;;;;5076305;28;20365;-79
2023/07/25 05:31:46;;;;;;;2.05;1.70;;;17.20;64.60;;;;;;5042705;28;20044;-79
2023/07/25 05:34:11;;;;;;;2.55;1.92;;;17.10;64.60;;;;;;5059041;28;20053;-80
2023/07/25 05:36:37;;;;;;;3.33;1.88;;;17.10;64.60;;;;;;5058289;28;20029;-80
2023/07/25 05:39:03;;;;;;;1.65;1.52;;;17.10;64.60;;;;;;5075858;28;20040;-80
2023/07/25 05:41:29;;;;;;;2.13;1.70;;;17.20;64.70;;;;;;5058549;28;20086;-81
2023/07/25 05:43:54;;;;;;;2.97;1.88;;;17.10;64.60;;;;;;5041334;28;20033;-80
2023/07/25 05:46:20;;;;;;;2.15;1.75;;;17.20;64.70;;;;;;5058196;28;20043;-80
2023/07/25 05:48:46;;;;;;;2.63;1.85;;;17.10;64.70;;;;;;5058016;28;20123;-78
2023/07/25 05:51:11;;;;;;;2.95;1.83;;;17.10;64.70;;;;;;5041426;28;20077;-79
2023/07/25 05:53:37;;;;;;;2.78;1.73;;;17.10;64.70;;;;;;5057868;28;20401;-79
2023/07/25 05:56:03;;;;;;;3.00;1.92;;;17.20;64.90;;;;;;5041189;28;20024;-79
2023/07/25 05:58:30;;;;;;;2.35;1.80;;;17.20;64.80;;;;;;5040523;28;20033;-79
2023/07/25 06:00:56;;;;;;;2.67;1.80;;;17.20;64.80;;;;;;5075727;28;20472;-80
2023/07/25 06:03:22;;;;;;;2.75;1.70;;;17.20;64.80;;;;;;5058635;28;20036;-78
2023/07/25 06:05:48;;;;;;;2.38;1.65;;;17.20;64.80;;;;;;5058605;28;20127;-79
2023/07/25 06:08:13;;;;;;;2.42;1.60;;;17.30;64.90;;;;;;5057637;28;20131;-79
2023/07/25 06:10:39;;;;;;;2.47;1.70;;;17.30;64.80;;;;;;5057277;28;20055;-79
2023/07/25 06:13:06;;;;;;;2.17;1.70;;;17.30;64.90;;;;;;5040806;28;20405;-80
2023/07/25 06:15:34;;;;;;;2.95;1.60;;;17.30;64.90;;;;;;5040958;28;20432;-79
2023/07/25 06:18:04;;;;;;;2.47;1.67;;;17.30;64.90;;;;;;5075427;28;20515;-81
2023/07/25 06:20:31;;;;;;;1.65;1.50;;;17.40;65.00;;;;;;5075141;28;20104;-80
2023/07/25 06:23:01;;;;;;;1.67;1.50;;;17.40;65.00;;;;;;5041157;28;20033;-80
2023/07/25 06:25:27;;;;;;;3.10;1.75;;;17.40;64.90;;;;;;5040503;28;20122;-79
2023/07/25 06:27:53;;;;;;;2.30;1.52;;;17.40;64.90;;;;;;5057273;28;20036;-80
2023/07/25 06:30:19;;;;;;;3.03;1.58;;;17.40;64.90;;;;;;5040645;28;20127;-79
2023/07/25 06:32:45;;;;;;;2.05;1.83;;;17.40;64.90;;;;;;5057691;28;20063;-80
2023/07/25 06:35:11;;;;;;;2.63;1.73;;;17.50;65.00;;;;;;5057074;28;20061;-80
2023/07/25 06:37:39;;;;;;;2.03;1.30;;;17.50;65.00;;;;;;5056768;28;20028;-83
2023/07/25 06:40:05;;;;;;;1.30;1.20;;;17.50;65.00;;;;;;5040294;28;20072;-85
2023/07/25 06:42:31;;;;;;;2.72;1.70;;;17.50;65.00;;;;;;5057298;28;20029;-83
2023/07/25 06:44:58;;;;;;;3.05;1.80;;;17.50;65.00;;;;;;5057462;28;20035;-81
2023/07/25 06:47:24;;;;;;;1.50;1.40;;;17.60;65.00;;;;;;5040126;28;20032;-82
2023/07/25 06:49:50;;;;;;;2.35;1.30;;;17.50;64.90;;;;;;5040080;28;20037;-82
2023/07/25 06:52:16;;;;;;;1.85;1.50;;;17.60;65.00;;;;;;5072955;28;20374;-82
2023/07/25 06:54:43;;;;;;;2.47;1.52;;;17.60;65.10;;;;;;5056771;28;20477;-82
2023/07/25 06:57:09;;;;;;;2.35;1.42;;;17.60;65.10;;;;;;5074413;28;20020;-82
2023/07/25 06:59:35;;;;;;;3.25;1.85;;;17.60;65.10;;;;;;5074131;28;20445;-82
2023/07/25 07:02:01;;;;;;;1.40;1.30;;;17.70;65.10;;;;;;5040661;28;20052;-83
2023/07/25 07:04:27;;;;;;;2.25;1.50;;;17.70;65.10;;;;;;5039880;28;20037;-85
2023/07/25 07:06:53;;;;;;;1.38;1.25;;;17.70;65.10;;;;;;5056412;28;20025;-82
2023/07/25 07:09:18;;;;;;;2.22;1.40;;;17.70;65.10;;;;;;5038734;28;20028;-81
2023/07/25 07:11:44;;;;;;;2.03;1.45;;;17.80;65.10;;;;;;5073717;28;20489;-84
2023/07/25 07:14:10;;;;;;;2.42;1.40;;;17.80;65.10;;;;;;5039596;28;20093;-84
2023/07/25 07:16:36;;;;;;;2.33;1.45;;;17.80;65.10;;;;;;5040335;28;20043;-82
2023/07/25 07:19:02;;;;;;;1.80;1.40;;;17.80;65.10;;;;;;5039476;28;20033;-82
2023/07/25 07:21:34;;;;;;;1.30;1.20;;;17.80;65.10;;;;;;5055888;28;20449;-83
2023/07/25 07:24:00;;;;;;;1.70;1.40;;;17.90;65.10;;;;;;5024644;28;20044;-83
2023/07/25 07:26:25;;;;;;;1.58;1.40;;;17.90;65.10;;;;;;5073545;28;20377;-83
2023/07/25 07:28:51;;;;;;;2.90;1.38;;;17.90;65.10;;;;;;5040256;28;20373;-81
2023/07/25 07:31:23;;;;;;;2.10;1.45;;;17.90;65.10;;;;;;5055783;28;20024;-82
2023/07/25 07:33:48;;;;;;;2.03;1.50;;;18.00;65.10;;;;;;5024799;28;20039;-80
2023/07/25 07:36:14;;;;;;;2.85;1.30;;;18.00;65.10;;;;;;5055300;28;20032;-81
2023/07/25 07:38:40;;;;;;;2.50;1.40;;;18.00;65.10;;;;;;5073858;28;20032;-81
2023/07/25 07:41:05;;;;;;;2.50;1.17;;;18.10;65.10;;;;;;5038948;28;20036;-81
2023/07/25 07:43:31;;;;;;;2.00;1.27;;;18.10;65.00;;;;;;5055389;28;20040;-82
2023/07/25 07:45:58;;;;;;;1.52;1.38;;;18.10;65.00;;;;;;5073667;28;20028;-79
2023/07/25 07:48:23;;;;;;;1.55;1.27;;;18.20;65.00;;;;;;5039153;28;20091;-78
2023/07/25 07:50:49;;;;;;;1.02;1.00;;;18.20;64.90;;;;;;5055621;28;20017;-83
2023/07/25 07:53:16;;;;;;;1.65;1.30;;;18.20;64.90;;;;;;5023506;28;20362;-82
2023/07/25 07:55:41;;;;;;;1.85;1.27;;;18.30;64.80;;;;;;5073684;28;20028;-84
2023/07/25 07:58:07;;;;;;;3.17;1.15;;;18.30;64.70;;;;;;5055539;28;20142;-83
2023/07/25 08:00:33;;;;;;;1.45;1.20;;;18.40;64.70;;;;;;5039127;28;20392;-82
2023/07/25 08:02:59;;;;;;;2.00;1.13;;;18.40;64.60;;;;;;5073767;28;20381;-82
2023/07/25 08:05:24;;;;;;;1.92;1.00;;;18.50;64.60;;;;;;5055348;28;20060;-81
2023/07/25 08:07:50;;;;;;;1.58;0.93;;;18.50;64.50;;;;;;5073507;28;20052;-80
2023/07/25 08:10:16;;;;;;;2.25;1.10;;;18.50;64.50;;;;;;5055670;28;20059;-79
2023/07/25 08:12:42;;;;;;;3.08;1.10;;;18.60;64.40;;;;;;5038502;28;20481;-79
2023/07/25 08:15:08;;;;;;;2.13;1.20;;;18.60;64.40;;;;;;5038857;28;20060;-78
2023/07/25 08:17:34;;;;;;;1.10;1.00;;;18.60;64.30;;;;;;5055632;28;20025;-79
2023/07/25 08:19:59;;;;;;;1.65;0.98;;;18.70;64.30;;;;;;5056749;28;20040;-79
2023/07/25 08:22:25;;;;;;;1.20;0.90;;;18.70;64.20;;;;;;5025984;28;20036;-81
2023/07/25 08:24:53;;;;;;;1.25;0.95;;;18.70;64.10;;;;;;5058981;28;20025;-78
2023/07/25 08:27:19;;;;;;;2.70;1.10;;;18.80;64.10;;;;;;5077155;28;20120;-78
2023/07/25 08:29:45;;;;;;;1.10;0.88;;;18.80;64.00;;;;;;5059808;28;20062;-79
2023/07/25 08:32:11;;;;;;;1.35;1.25;;;18.90;64.00;;;;;;5059150;28;20028;-78
2023/07/25 08:34:38;;;;;;;2.00;1.30;;;18.90;63.90;;;;;;5076823;28;20095;-79
2023/07/25 08:37:05;;;;;;;1.15;0.98;;;19.00;63.90;;;;;;5077171;28;20099;-82
2023/07/25 08:39:31;;;;;;;1.33;1.00;;;19.00;63.80;;;;;;5058652;28;20469;-79
2023/07/25 08:41:59;;;;;;;1.85;1.23;;;19.00;63.70;;;;;;5076689;28;20029;-81
2023/07/25 08:44:26;;;;;;;2.38;1.35;;;19.10;63.70;;;;;;5076711;28;20075;-82
2023/07/25 08:46:54;;;;;;;1.33;0.88;;;19.20;63.60;;;;;;5042192;28;20059;-82
2023/07/25 08:49:26;;;;;;;1.17;1.00;;;19.20;63.60;;;;;;5042852;28;20024;-79
2023/07/25 08:51:53;;;;;;;1.15;0.80;;;19.20;63.50;;;;;;5076661;28;20036;-78
2023/07/25 08:54:30;;;;;;;0.93;0.88;;;19.30;63.50;;;;;;5076886;28;20025;-83
2023/07/25 08:56:57;;;;;;;1.05;0.80;;;19.40;63.50;;;;;;5077117;28;20024;-81
2023/07/25 08:59:24;;;;;;;1.13;0.95;;;19.40;63.30;;;;;;5058440;28;20457;-80
2023/07/25 09:01:51;;;;;;;1.13;0.90;;;19.40;63.20;;;;;;5058364;28;20028;-78
2023/07/25 09:04:19;;;;;;;1.70;1.02;;;19.50;63.20;;;;;;5076329;28;20040;-79
2023/07/25 09:06:45;;;;;;;1.20;0.98;;;19.50;63.10;;;;;;5076087;28;20032;-81
2023/07/25 09:09:11;;;;;;;1.00;0.82;;;19.60;63.00;;;;;;5058303;28;20028;-79
2023/07/25 09:11:37;;;;;;;1.88;0.90;;;19.60;63.00;;;;;;5041893;28;20045;-79
2023/07/25 09:14:03;;;;;;;0.88;0.80;;;19.70;63.00;;;;;;5058196;28;20504;-79
2023/07/25 09:16:30;;;;;;;1.38;1.00;;;19.70;62.90;;;;;;5058155;28;20029;-79
2023/07/25 09:18:56;;;;;;;1.20;1.10;;;19.70;62.90;;;;;;5058110;28;20438;-79
2023/07/25 09:21:22;;;;;;;1.05;0.80;;;19.80;62.90;;;;;;5075921;28;20044;-79
2023/07/25 09:23:51;;;;;;;1.17;0.90;;;19.80;62.80;;;;;;5076576;28;20025;-78
2023/07/25 09:26:21;;;;;;;1.02;0.90;;;19.80;62.80;;;;;;5058458;28;20028;-81
2023/07/25 09:28:49;;;;;;;1.73;0.85;;;19.90;62.80;;;;;;5042092;28;20115;-78
2023/07/25 09:31:15;;;;;;;1.95;1.10;;;19.90;62.70;;;;;;5074823;28;20477;-78
2023/07/25 09:33:40;;;;;;;1.65;0.90;;;19.90;62.70;;;;;;5058062;28;20043;-78
2023/07/25 09:36:06;;;;;;;0.73;0.70;;;19.90;62.60;;;;;;5042297;28;20482;-79
2023/07/25 09:38:36;;;;;;;1.38;0.90;;;19.90;62.60;;;;;;5041195;28;20036;-78
2023/07/25 09:41:03;;;;;;;1.35;0.82;;;20.00;62.50;;;;;;5058211;28;20432;-78
2023/07/25 09:43:29;;;;;;;1.20;0.90;;;20.00;62.40;;;;;;5041720;28;20123;-77
2023/07/25 09:45:55;;;;;;;2.10;1.00;;;20.10;62.40;;;;;;5076412;28;20519;-78
2023/07/25 09:48:22;;;;;;;1.25;0.80;;;20.10;63.00;;;;;;5075968;28;20089;-80
2023/07/25 09:50:48;;;;;;;1.50;0.77;;;20.20;62.30;;;;;;5057800;28;20049;-79
2023/07/25 09:53:16;;;;;;;0.63;0.63;;;20.20;62.10;;;;;;5058326;28;20033;-77
2023/07/25 09:55:43;;;;;;;0.70;0.70;;;20.30;62.10;;;;;;5057857;28;20028;-78
2023/07/25 09:58:09;;;;;;;1.00;0.77;;;20.40;62.00;;;;;;5057379;28;20111;-78
2023/07/25 10:00:35;;;;;;;1.25;0.75;;;20.40;61.80;;;;;;5075289;28;20029;-83
2023/07/25 10:03:01;;;;;;;1.25;0.70;;;20.50;61.80;;;;;;5076423;28;20105;-78
2023/07/25 10:05:30;;;;;;;1.52;0.90;;;20.60;61.70;;;;;;5058488;28;20032;-78
2023/07/25 10:07:57;;;;;;;0.80;0.80;;;20.60;61.50;;;;;;5058526;28;20036;-78
2023/07/25 10:10:24;;;;;;;1.25;0.70;;;20.60;61.40;;;;;;5057356;28;20044;-88
2023/07/25 10:12:50;;;;;;;0.70;0.70;;;20.70;61.40;;;;;;5074718;28;20058;-79
2023/07/25 10:15:17;;;;;;;1.40;0.90;;;20.80;61.30;;;;;;5040148;28;20115;-84
2023/07/25 10:17:42;;;;;;;0.75;0.73;;;20.80;61.10;;;;;;5057455;28;20028;-81
2023/07/25 10:20:08;;;;;;;1.63;0.80;;;20.90;61.10;;;;;;5074812;28;20033;-84
2023/07/25 10:22:39;;;;;;;1.83;0.88;;;21.00;61.00;;;;;;5075587;28;20362;-87
2023/07/25 10:25:11;;;;;;;1.63;0.80;;;21.00;60.90;;;;;;5056858;28;20122;-80
2023/07/25 10:27:37;;;;;;;1.05;0.65;;;21.10;60.80;;;;;;5057341;28;20056;-77
2023/07/25 10:30:22;;;;;;;1.05;0.68;;;21.20;60.60;;;;;;5040945;28;20485;-78
2023/07/25 10:32:51;;;;;;;0.75;0.65;;;21.30;60.60;;;;;;5057465;28;20033;-77
2023/07/25 10:35:37;;;;;;;0.52;0.52;;;21.30;60.40;;;;;;5074740;28;20098;-78
2023/07/25 10:38:10;;;;;;;0.70;0.70;;;21.40;60.30;;;;;;5057456;28;20051;-77
2023/07/25 10:41:13;;;;;;;0.88;0.70;;;21.50;60.20;;;;;;5040208;28;20040;-78
2023/07/25 10:43:45;;;;;;;0.60;0.60;;;21.60;60.20;;;;;;5026729;28;20498;-77
2023/07/25 10:46:19;;;;;;;0.57;0.57;;;21.70;59.90;;;;;;5056524;28;20035;-80
2023/07/25 10:48:52;;;;;;;1.05;0.60;;;21.70;59.80;;;;;;5057019;28;20055;-77
2023/07/25 10:51:19;;;;;;;1.75;0.70;;;21.90;59.80;;;;;;5057444;28;20103;-76
2023/07/25 10:54:22;;;;;;;0.98;0.70;;;21.90;59.60;;;;;;5056470;28;20512;-77
2023/07/25 10:57:22;;;;;;;0.70;0.70;;;22.00;59.60;;;;;;4973708;28;20049;-78
2023/07/25 10:59:58;;;;;;;0.50;0.50;;;22.10;59.60;;;;;;5074679;28;20045;-77
2023/07/25 11:02:29;;;;;;;0.73;0.70;;;22.10;59.50;;;;;;5074758;28;20068;-77
2023/07/25 11:05:13;;;;;;;0.70;0.70;;;22.20;59.40;;;;;;5056163;28;20074;-78
2023/07/25 11:07:49;;;;;;;0.87;0.70;;;22.20;59.40;;;;;;5056555;28;20037;-78
2023/07/25 11:10:26;;;;;;;0.60;0.60;;;22.30;59.40;;;;;;5074283;28;20056;-78
2023/07/25 11:12:57;;;;;;;0.60;0.55;;;22.30;59.30;;;;;;5075319;28;20095;-78
2023/07/25 11:15:23;;;;;;;1.23;0.70;;;22.40;59.40;;;;;;5039998;28;20028;-80
2023/07/25 11:17:49;;;;;;;0.68;0.60;;;22.30;59.30;;;;;;5073937;28;20108;-80
2023/07/25 11:20:18;;;;;;;0.55;0.52;;;22.40;59.40;;;;;;5074012;28;20032;-79
2023/07/25 11:22:44;;;;;;;0.60;0.60;;;22.50;59.40;;;;;;5056345;28;20029;-84
2023/07/25 11:25:10;;;;;;;0.45;0.45;;;22.50;59.40;;;;;;5073798;28;20103;-79
2023/07/25 11:27:47;;;;;;;1.35;0.70;;;22.50;59.30;;;;;;5056622;28;20040;-78
2023/07/25 11:30:13;;;;;;;0.60;0.60;;;22.60;59.20;;;;;;5056305;28;20037;-78
2023/07/25 11:32:49;;;;;;;0.98;0.68;;;22.60;59.20;;;;;;5056098;28;20081;-79
2023/07/25 11:35:15;;;;;;;1.17;0.60;;;22.60;59.10;;;;;;5074164;28;20122;-79
2023/07/25 11:37:43;;;;;;;0.80;0.80;;;22.60;59.00;;;;;;5039587;28;20132;-78
2023/07/25 11:40:15;;;;;;;0.50;0.50;;;22.60;58.80;;;;;;5073411;28;20033;-82
2023/07/25 11:42:46;;;;;;;0.82;0.70;;;22.70;58.70;;;;;;5055801;28;20039;-78
2023/07/25 11:45:14;;;;;;;1.30;0.70;;;22.70;58.70;;;;;;5073815;28;20112;-78
2023/07/25 11:47:46;;;;;;;0.63;0.60;;;22.70;58.70;;;;;;5055993;28;20051;-80
2023/07/25 11:50:12;;;;;;;1.52;0.70;;;22.70;58.60;;;;;;5055941;28;20116;-77
2023/07/25 11:52:41;;;;;;;1.17;0.60;;;22.70;58.50;;;;;;5039520;28;20029;-76
2023/07/25 11:55:08;;;;;;;0.60;0.50;;;22.80;58.50;;;;;;5038980;28;20123;-77
2023/07/25 11:57:36;;;;;;;0.70;0.60;;;22.80;58.20;;;;;;5055827;28;20028;-78
2023/07/25 12:00:06;;;;;;;0.50;0.50;;;22.80;58.00;;;;;;5073225;28;20089;-77
2023/07/25 12:02:41;;;;;;;0.65;0.60;;;22.90;57.90;;;;;;5073823;28;20048;-82
2023/07/25 12:05:27;;;;;;;0.52;0.52;;;22.90;57.80;;;;;;5074719;28;20035;-77
2023/07/25 12:08:00;;;;;;;0.80;0.68;;;23.00;57.80;;;;;;5055449;28;20028;-78
2023/07/25 12:10:27;;;;;;;0.57;0.55;;;22.90;57.60;;;;;;5073689;28;20223;-77
2023/07/25 12:12:56;;;;;;;0.82;0.68;;;23.00;57.50;;;;;;5073467;28;20051;-77
2023/07/25 12:15:24;;;;;;;0.82;0.60;;;23.00;57.40;;;;;;5055464;28;20067;-78
2023/07/25 12:17:50;;;;;;;0.60;0.60;;;23.00;57.40;;;;;;5073936;28;20060;-78
2023/07/25 12:20:18;;;;;;;0.52;0.52;;;23.00;57.30;;;;;;5055443;28;20061;-78
2023/07/25 12:22:45;;;;;;;0.60;0.60;;;23.10;57.30;;;;;;5055268;28;20033;-78
2023/07/25 12:25:15;;;;;;;0.50;0.50;;;23.10;57.20;;;;;;5074180;28;20036;-77
2023/07/25 12:27:45;;;;;;;0.75;0.70;;;23.10;57.20;;;;;;5073075;28;20029;-81
2023/07/25 12:30:11;;;;;;;0.93;0.63;;;23.10;57.20;;;;;;5055294;28;20101;-77
2023/07/25 12:32:37;;;;;;;0.68;0.50;;;23.20;57.30;;;;;;5055383;28;20473;-78
2023/07/25 12:35:03;;;;;;;1.40;0.60;;;23.10;57.30;;;;;;5072921;28;20029;-77
2023/07/25 12:37:29;;;;;;;1.33;0.60;;;23.10;57.30;;;;;;5038557;28;20342;-81
2023/07/25 12:39:55;;;;;;;1.00;0.77;;;23.10;57.30;;;;;;5039036;28;20037;-77
2023/07/25 12:42:21;;;;;;;0.60;0.60;;;23.20;57.40;;;;;;5055321;28;20040;-77
2023/07/25 12:44:46;;;;;;;0.57;0.57;;;23.20;57.40;;;;;;5055430;28;20496;-76
2023/07/25 12:47:12;;;;;;;0.55;0.47;;;23.20;57.40;;;;;;5055875;28;20037;-77